Terminal Aerodrome Forecast
Issued by NWS

Home | Current Version | Previous Version | Text Only | Print | Product List | Glossary On
Versions: 1 2 3 4 5 6 7 8 9 10 11 12 13 14 15
000
FTUS42 KTBW 021100
TAFRSW
TAF
KRSW 021120Z 0212/0312 07005KT P6SM FEW250
     FM021500 09007KT P6SM SCT035 SCT150
     FM021800 12007KT P6SM VCTS SCT050CB BKN150
     FM030000 09004KT P6SM FEW050 SCT250=

USA.gov is the U.S. government's official web portal to all federal, state and local government web resources and services.